createdAt,value
2018-07-28T00:00:10.503Z,6.50
2018-07-28T00:02:39.757Z,6.33
2018-07-28T00:05:09.645Z,7.63
2018-07-28T00:07:38.946Z,10.10
2018-07-28T00:10:11.824Z,6.73
2018-07-28T00:12:40.967Z,7.80
2018-07-28T00:15:11.416Z,6.80
2018-07-28T00:17:41.286Z,6.00
2018-07-28T00:20:11.731Z,5.73
2018-07-28T00:22:40.845Z,6.37
2018-07-28T00:25:11.747Z,7.37
2018-07-28T00:27:41.091Z,8.03
2018-07-28T00:30:12.263Z,6.97
2018-07-28T00:32:41.463Z,8.00
2018-07-28T00:35:10.498Z,10.37
2018-07-28T00:37:39.640Z,7.30
2018-07-28T00:40:09.164Z,6.73
2018-07-28T00:42:38.282Z,7.70
2018-07-28T00:45:07.834Z,8.70
2018-07-28T00:47:36.998Z,8.50
2018-07-28T00:50:07.085Z,10.47
2018-07-28T00:52:36.208Z,10.70
2018-07-28T00:55:05.546Z,12.63
2018-07-28T00:57:34.750Z,13.63
2018-07-28T01:00:03.995Z,12.60
2018-07-28T01:02:32.993Z,13.10
2018-07-28T01:05:02.169Z,11.07
2018-07-28T01:07:30.955Z,10.37
2018-07-28T01:10:00.108Z,10.50
2018-07-28T01:15:05.303Z,11.07
2018-07-28T01:17:34.442Z,13.07
2018-07-28T01:20:03.284Z,12.40
2018-07-28T01:22:32.417Z,9.67
2018-07-28T01:25:01.680Z,9.40
2018-07-28T01:27:30.533Z,11.13
2018-07-28T01:29:59.392Z,11.17
2018-07-28T01:32:28.382Z,10.63
2018-07-28T01:34:57.510Z,11.97
2018-07-28T01:37:26.677Z,11.87
2018-07-28T01:39:55.990Z,10.50
2018-07-28T01:42:25.099Z,9.27
2018-07-28T01:44:54.115Z,8.53
2018-07-28T01:47:23.035Z,7.93
2018-07-28T01:49:52.324Z,8.07
2018-07-28T01:52:21.578Z,8.00
2018-07-28T01:54:50.832Z,7.70
2018-07-28T01:57:20.018Z,9.50
2018-07-28T01:59:48.926Z,8.67
2018-07-28T02:02:18.112Z,9.13
2018-07-28T02:04:47.462Z,10.23
2018-07-28T02:07:16.549Z,9.30
2018-07-28T02:09:45.741Z,9.53
2018-07-28T02:12:14.738Z,8.97
2018-07-28T02:14:43.978Z,8.63
2018-07-28T02:17:12.977Z,9.67
2018-07-28T02:19:42.068Z,9.13
2018-07-28T02:22:11.056Z,10.10
2018-07-28T02:24:40.150Z,9.23
2018-07-28T02:27:09.211Z,10.00
2018-07-28T02:29:38.079Z,9.37
2018-07-28T02:32:07.325Z,9.17
2018-07-28T02:34:36.175Z,8.50
2018-07-28T02:37:05.252Z,7.70
2018-07-28T02:39:34.346Z,8.23
2018-07-28T02:42:03.619Z,8.17
2018-07-28T02:44:32.801Z,7.93
2018-07-28T02:47:02.057Z,7.97
2018-07-28T02:49:31.213Z,7.87
2018-07-28T02:52:00.411Z,7.93
2018-07-28T02:54:29.299Z,9.87
2018-07-28T02:56:58.275Z,7.90
2018-07-28T02:59:27.393Z,7.70
2018-07-28T03:01:56.187Z,7.13
2018-07-28T03:04:25.286Z,8.43
2018-07-28T03:06:54.434Z,7.13
2018-07-28T03:09:23.678Z,8.50
2018-07-28T03:11:52.641Z,6.50
2018-07-28T03:14:21.586Z,6.67
2018-07-28T03:16:50.780Z,6.50
2018-07-28T03:19:19.991Z,5.93
2018-07-28T03:21:49.071Z,6.10
2018-07-28T03:24:18.343Z,6.30
2018-07-28T03:26:47.607Z,6.77
2018-07-28T03:29:16.687Z,6.33
2018-07-28T03:31:45.600Z,6.73
2018-07-28T03:34:14.521Z,6.87
2018-07-28T03:36:43.466Z,6.20
2018-07-28T03:39:12.865Z,6.20
2018-07-28T03:41:42.165Z,6.67
2018-07-28T03:44:10.940Z,6.70
2018-07-28T03:46:40.191Z,7.00
2018-07-28T03:49:09.397Z,6.67
2018-07-28T03:51:38.353Z,7.37
2018-07-28T03:54:07.391Z,7.07
2018-07-28T03:56:36.368Z,7.17
2018-07-28T03:59:05.510Z,6.50
2018-07-28T04:01:34.755Z,7.37
2018-07-28T04:04:03.567Z,6.67
2018-07-28T04:06:32.674Z,8.20
2018-07-28T04:09:01.659Z,8.53
2018-07-28T04:11:30.622Z,8.40
2018-07-28T04:13:59.687Z,9.00
2018-07-28T04:16:28.926Z,9.97
2018-07-28T04:18:58.175Z,9.03
2018-07-28T04:21:27.438Z,8.77
2018-07-28T04:23:56.475Z,9.07
2018-07-28T04:26:25.525Z,7.47
2018-07-28T04:28:54.557Z,7.23
2018-07-28T04:31:23.750Z,6.97
2018-07-28T04:33:52.740Z,6.40
2018-07-28T04:36:21.979Z,7.03
2018-07-28T04:38:51.036Z,9.17
2018-07-28T04:41:20.168Z,6.77
2018-07-28T04:43:49.215Z,7.20
2018-07-28T04:46:18.470Z,7.60
2018-07-28T04:48:47.638Z,6.53
2018-07-28T04:51:16.688Z,6.80
2018-07-28T04:53:45.439Z,7.60
2018-07-28T04:56:14.665Z,6.47
2018-07-28T04:58:43.493Z,7.40
2018-07-28T05:01:12.194Z,6.63
2018-07-28T05:03:41.255Z,6.57
2018-07-28T05:06:10.346Z,6.30
2018-07-28T05:08:39.129Z,6.50
2018-07-28T05:11:08.330Z,7.17
2018-07-28T05:13:37.607Z,6.83
2018-07-28T05:16:06.350Z,7.17
2018-07-28T05:18:35.168Z,7.90
2018-07-28T05:21:04.156Z,6.80
2018-07-28T05:23:33.063Z,6.20
2018-07-28T05:26:02.223Z,5.07
2018-07-28T05:28:31.425Z,9.70
2018-07-28T05:31:00.802Z,5.97
2018-07-28T05:33:29.894Z,8.03
2018-07-28T05:35:58.970Z,6.53
2018-07-28T05:38:28.221Z,6.60
2018-07-28T05:40:57.467Z,6.30
2018-07-28T05:43:26.663Z,6.10
2018-07-28T05:45:55.402Z,6.13
2018-07-28T05:48:24.690Z,6.40
2018-07-28T05:50:54.043Z,7.67
2018-07-28T05:53:22.990Z,7.17
2018-07-28T05:55:52.139Z,6.20
2018-07-28T05:58:21.208Z,6.60
2018-07-28T06:00:50.336Z,7.73
2018-07-28T06:03:19.438Z,7.10
2018-07-28T06:05:48.862Z,7.20
2018-07-28T06:08:17.879Z,7.43
2018-07-28T06:10:46.858Z,7.07
2018-07-28T06:13:16.055Z,9.23
2018-07-28T06:15:45.194Z,7.07
2018-07-28T06:18:14.302Z,6.77
2018-07-28T06:20:43.155Z,7.00
2018-07-28T06:23:11.987Z,7.27
2018-07-28T06:25:40.898Z,7.43
2018-07-28T06:28:10.143Z,7.93
2018-07-28T06:30:39.391Z,7.17
2018-07-28T06:33:08.599Z,6.80
2018-07-28T06:35:37.810Z,7.80
2018-07-28T06:38:07.095Z,7.13
2018-07-28T06:40:36.279Z,7.07
2018-07-28T06:43:05.122Z,7.37
2018-07-28T06:45:34.133Z,7.23
2018-07-28T06:48:03.440Z,8.00
2018-07-28T06:50:32.814Z,8.07
2018-07-28T06:53:02.135Z,7.63
2018-07-28T06:55:31.256Z,7.40
2018-07-28T06:58:00.423Z,8.40
2018-07-28T07:00:29.639Z,7.83
2018-07-28T07:02:58.899Z,8.20
2018-07-28T07:05:28.339Z,7.57
2018-07-28T07:07:57.547Z,7.50
2018-07-28T07:10:26.515Z,8.40
2018-07-28T07:12:55.579Z,8.77
2018-07-28T07:15:24.529Z,8.50
2018-07-28T07:17:53.685Z,7.77
2018-07-28T07:20:22.628Z,8.50
2018-07-28T07:22:51.510Z,8.13
2018-07-28T07:25:20.650Z,8.00
2018-07-28T07:27:49.894Z,7.93
2018-07-28T07:30:19.027Z,8.13
2018-07-28T07:32:47.972Z,8.40
2018-07-28T07:35:17.199Z,7.80
2018-07-28T07:37:46.329Z,7.97
2018-07-28T07:40:15.430Z,7.77
2018-07-28T07:42:44.309Z,7.07
2018-07-28T07:45:13.312Z,7.43
2018-07-28T07:47:42.451Z,7.73
2018-07-28T07:50:11.603Z,7.83
2018-07-28T07:52:40.826Z,7.73
2018-07-28T07:55:09.955Z,7.77
2018-07-28T07:57:38.754Z,7.63
2018-07-28T08:00:08.449Z,7.97
2018-07-28T08:02:37.423Z,8.07
2018-07-28T08:05:06.570Z,8.30
2018-07-28T08:07:35.808Z,7.63
2018-07-28T08:10:05.375Z,8.10
2018-07-28T08:12:34.661Z,7.90
2018-07-28T08:15:03.814Z,7.70
2018-07-28T08:17:32.775Z,8.47
2018-07-28T08:20:02.847Z,8.23
2018-07-28T08:22:31.992Z,7.83
2018-07-28T08:25:01.366Z,7.97
2018-07-28T08:27:30.822Z,7.67
2018-07-28T08:29:59.995Z,7.63
2018-07-28T08:32:29.229Z,10.17
2018-07-28T08:34:58.333Z,8.07
2018-07-28T08:37:27.353Z,8.43
2018-07-28T08:39:56.197Z,8.07
2018-07-28T08:42:25.338Z,7.33
2018-07-28T08:44:54.457Z,7.93
2018-07-28T08:47:23.542Z,7.57
2018-07-28T08:49:52.586Z,6.83
2018-07-28T08:52:21.521Z,8.20
2018-07-28T08:54:50.735Z,7.67
2018-07-28T08:57:19.754Z,7.97
2018-07-28T08:59:48.995Z,8.23
2018-07-28T09:02:18.071Z,7.97
2018-07-28T09:04:47.319Z,7.17
2018-07-28T09:07:16.490Z,7.40
2018-07-28T09:09:45.526Z,7.93
2018-07-28T09:12:14.573Z,8.03
2018-07-28T09:14:43.579Z,7.27
2018-07-28T09:17:12.885Z,7.50
2018-07-28T09:19:42.152Z,7.00
2018-07-28T09:22:11.477Z,7.17
2018-07-28T09:24:40.683Z,7.10
2018-07-28T09:27:09.759Z,6.63
2018-07-28T09:29:38.991Z,6.20
2018-07-28T09:32:08.382Z,6.60
2018-07-28T09:34:37.549Z,6.00
2018-07-28T09:37:06.995Z,6.30
2018-07-28T09:39:36.240Z,5.90
2018-07-28T09:42:05.550Z,5.28
2018-07-28T09:44:34.739Z,5.97
2018-07-28T09:47:03.895Z,5.30
2018-07-28T09:49:33.089Z,5.55
2018-07-28T09:52:01.890Z,6.53
2018-07-28T09:54:31.003Z,5.30
2018-07-28T09:56:59.958Z,5.45
2018-07-28T09:59:29.633Z,5.45
2018-07-28T10:01:58.539Z,5.00
2018-07-28T10:04:27.659Z,5.30
2018-07-28T10:06:56.496Z,5.37
2018-07-28T10:09:25.790Z,5.28
2018-07-28T10:11:54.890Z,4.72
2018-07-28T10:14:23.895Z,5.67
2018-07-28T10:16:53.063Z,6.37
2018-07-28T10:19:22.164Z,6.00
2018-07-28T10:21:51.517Z,5.65
2018-07-28T10:24:20.506Z,5.97
2018-07-28T10:26:49.622Z,5.42
2018-07-28T10:29:18.625Z,6.15
2018-07-28T10:31:47.819Z,5.37
2018-07-28T10:34:16.931Z,5.35
2018-07-28T10:36:46.118Z,6.03
2018-07-28T10:39:15.429Z,5.40
2018-07-28T10:41:44.326Z,5.72
2018-07-28T10:44:14.416Z,5.42
2018-07-28T10:46:43.462Z,6.60
2018-07-28T10:49:12.505Z,5.97
2018-07-28T10:51:41.843Z,5.42
2018-07-28T10:54:10.755Z,5.72
2018-07-28T10:56:39.999Z,5.22
2018-07-28T10:59:09.331Z,5.50
2018-07-28T11:01:38.620Z,5.33
2018-07-28T11:04:07.714Z,5.28
2018-07-28T11:06:36.798Z,5.40
2018-07-28T11:09:08.169Z,4.90
2018-07-28T11:11:37.238Z,5.12
2018-07-28T11:14:06.640Z,4.95
2018-07-28T11:16:35.922Z,4.72
2018-07-28T11:19:05.056Z,5.25
2018-07-28T11:21:34.090Z,5.22
2018-07-28T11:24:03.747Z,5.28
2018-07-28T11:26:33.137Z,5.40
2018-07-28T11:29:02.235Z,5.28
2018-07-28T11:31:42.034Z,5.12
2018-07-28T11:34:21.629Z,5.90
2018-07-28T11:37:01.607Z,5.33
2018-07-28T11:39:41.551Z,5.95
2018-07-28T11:42:21.704Z,5.97
2018-07-28T11:45:06.162Z,5.78
2018-07-28T11:47:35.307Z,5.65
2018-07-28T11:50:04.613Z,5.85
2018-07-28T11:52:33.931Z,5.08
2018-07-28T11:55:03.102Z,5.72
2018-07-28T11:57:32.347Z,5.47
2018-07-28T12:00:01.600Z,5.75
2018-07-28T12:02:30.886Z,5.22
2018-07-28T12:05:00.029Z,5.85
2018-07-28T12:07:29.235Z,5.58
2018-07-28T12:09:58.363Z,5.97
2018-07-28T12:12:27.444Z,6.25
2018-07-28T12:14:56.517Z,5.90
2018-07-28T12:17:25.737Z,5.27
2018-07-28T12:19:54.528Z,5.42
2018-07-28T12:22:23.754Z,5.72
2018-07-28T12:24:53.015Z,5.10
2018-07-28T12:27:22.142Z,5.47
2018-07-28T12:29:51.256Z,5.87
2018-07-28T12:32:20.315Z,5.67
2018-07-28T12:34:49.629Z,5.20
2018-07-28T12:37:18.910Z,5.25
2018-07-28T12:39:48.147Z,5.62
2018-07-28T12:42:16.905Z,5.37
2018-07-28T12:44:46.185Z,5.62
2018-07-28T12:47:15.322Z,6.20
2018-07-28T12:49:44.539Z,5.58
2018-07-28T12:52:13.556Z,5.53
2018-07-28T12:54:42.852Z,5.53
2018-07-28T12:57:11.847Z,6.30
2018-07-28T12:59:40.880Z,6.53
2018-07-28T13:02:10.090Z,6.67
2018-07-28T13:04:38.918Z,6.37
2018-07-28T13:07:07.981Z,6.83
2018-07-28T13:09:37.178Z,6.83
2018-07-28T13:12:06.399Z,7.10
2018-07-28T13:14:35.347Z,7.03
2018-07-28T13:17:04.631Z,7.10
2018-07-28T13:19:33.570Z,6.50
2018-07-28T13:22:02.715Z,6.67
2018-07-28T13:24:31.907Z,6.80
2018-07-28T13:27:00.862Z,6.40
2018-07-28T13:29:29.871Z,6.70
2018-07-28T13:31:59.004Z,6.87
2018-07-28T13:34:28.022Z,7.40
2018-07-28T13:36:57.131Z,7.60
2018-07-28T13:39:26.371Z,7.30
2018-07-28T13:41:55.794Z,6.90
2018-07-28T13:44:24.987Z,6.40
2018-07-28T13:46:54.275Z,6.60
2018-07-28T13:49:23.367Z,6.97
2018-07-28T13:51:52.399Z,7.03
2018-07-28T13:54:21.594Z,6.73
2018-07-28T13:56:50.686Z,6.80
2018-07-28T13:59:19.647Z,7.40
2018-07-28T14:01:48.903Z,7.73
2018-07-28T14:04:18.122Z,6.77
2018-07-28T14:06:47.300Z,6.80
2018-07-28T14:09:16.184Z,7.23
2018-07-28T14:11:45.291Z,7.10
2018-07-28T14:14:14.367Z,7.10
2018-07-28T14:16:43.291Z,7.17
2018-07-28T14:19:12.406Z,7.37
2018-07-28T14:21:41.442Z,7.60
2018-07-28T14:24:10.249Z,7.20
2018-07-28T14:26:39.180Z,7.00
2018-07-28T14:29:08.264Z,7.20
2018-07-28T14:31:37.306Z,7.10
2018-07-28T14:34:06.813Z,6.53
2018-07-28T14:36:35.906Z,6.50
2018-07-28T14:39:06.734Z,7.10
2018-07-28T14:41:36.092Z,6.37
2018-07-28T14:44:05.234Z,6.57
2018-07-28T14:46:34.429Z,6.00
2018-07-28T14:49:03.422Z,6.13
2018-07-28T14:51:32.722Z,6.40
2018-07-28T14:54:02.006Z,7.10
2018-07-28T14:56:31.297Z,6.73
2018-07-28T14:59:00.578Z,6.73
2018-07-28T15:01:30.050Z,7.77
2018-07-28T15:03:59.255Z,6.87
2018-07-28T15:06:28.418Z,9.53
2018-07-28T15:08:57.520Z,7.50
2018-07-28T15:11:26.247Z,7.83
2018-07-28T15:13:55.541Z,7.17
2018-07-28T15:16:24.647Z,7.10
2018-07-28T15:18:53.990Z,5.80
2018-07-28T15:21:23.130Z,5.60
2018-07-28T15:23:51.996Z,6.23
2018-07-28T15:26:20.813Z,6.07
2018-07-28T15:28:51.685Z,6.10
2018-07-28T15:31:21.558Z,6.13
2018-07-28T15:33:50.773Z,5.97
2018-07-28T15:36:19.932Z,5.67
2018-07-28T15:38:49.160Z,5.30
2018-07-28T15:41:18.271Z,5.30
2018-07-28T15:43:47.330Z,5.60
2018-07-28T15:46:16.447Z,5.83
2018-07-28T15:48:45.410Z,5.50
2018-07-28T15:51:14.358Z,5.77
2018-07-28T15:53:43.647Z,6.50
2018-07-28T15:56:12.847Z,5.73
2018-07-28T15:58:41.606Z,5.97
2018-07-28T16:01:10.747Z,5.93
2018-07-28T16:03:40.396Z,6.30
2018-07-28T16:06:09.477Z,6.53
2018-07-28T16:08:38.442Z,6.87
2018-07-28T16:11:07.542Z,6.37
2018-07-28T16:13:36.434Z,6.50
2018-07-28T16:16:05.754Z,8.10
2018-07-28T16:18:34.816Z,7.00
2018-07-28T16:21:04.042Z,6.93
2018-07-28T16:23:32.848Z,5.97
2018-07-28T16:26:01.987Z,7.00
2018-07-28T16:28:30.928Z,8.73
2018-07-28T16:31:00.019Z,7.00
2018-07-28T16:33:29.007Z,6.87
2018-07-28T16:35:58.334Z,7.10
2018-07-28T16:38:27.094Z,6.63
2018-07-28T16:40:55.921Z,8.13
2018-07-28T16:43:24.842Z,7.50
2018-07-28T16:45:54.766Z,7.70
2018-07-28T16:48:24.398Z,7.00
2018-07-28T16:50:53.922Z,7.80
2018-07-28T16:53:23.095Z,7.40
2018-07-28T16:55:52.559Z,6.97
2018-07-28T16:58:22.260Z,7.87
2018-07-28T17:00:51.775Z,11.17
2018-07-28T17:03:20.793Z,7.57
2018-07-28T17:05:50.034Z,8.60
2018-07-28T17:08:19.153Z,7.90
2018-07-28T17:10:48.327Z,7.30
2018-07-28T17:13:17.440Z,11.73
2018-07-28T17:15:47.247Z,8.97
2018-07-28T17:18:16.239Z,9.00
2018-07-28T17:20:45.497Z,8.73
2018-07-28T17:23:14.488Z,7.80
2018-07-28T17:25:43.462Z,7.77
2018-07-28T17:28:12.706Z,7.50
2018-07-28T17:30:42.073Z,8.60
2018-07-28T17:33:11.047Z,8.20
2018-07-28T17:35:40.202Z,8.90
2018-07-28T17:38:09.547Z,9.00
2018-07-28T17:40:38.441Z,8.80
2018-07-28T17:43:07.439Z,7.97
2018-07-28T17:45:36.678Z,7.33
2018-07-28T17:48:05.971Z,7.20
2018-07-28T17:50:35.114Z,8.07
2018-07-28T17:53:04.467Z,8.23
2018-07-28T17:55:33.707Z,8.60
2018-07-28T17:58:02.990Z,9.60
2018-07-28T18:00:31.818Z,9.23
2018-07-28T18:03:01.154Z,8.30
2018-07-28T18:05:30.269Z,7.83
2018-07-28T18:07:59.439Z,8.63
2018-07-28T18:10:28.562Z,8.33
2018-07-28T18:12:57.630Z,7.97
2018-07-28T18:15:26.420Z,8.70
2018-07-28T18:17:55.447Z,8.03
2018-07-28T18:20:24.559Z,8.60
2018-07-28T18:22:53.645Z,8.70
2018-07-28T18:25:23.180Z,8.13
2018-07-28T18:27:52.350Z,8.17
2018-07-28T18:30:21.603Z,8.77
2018-07-28T18:32:50.751Z,8.50
2018-07-28T18:35:19.994Z,8.87
2018-07-28T18:37:48.927Z,8.60
2018-07-28T18:40:17.884Z,9.23
2018-07-28T18:42:47.008Z,8.43
2018-07-28T18:45:16.200Z,8.53
2018-07-28T18:47:45.184Z,8.30
2018-07-28T18:50:14.258Z,8.47
2018-07-28T18:52:43.109Z,8.90
2018-07-28T18:55:12.300Z,9.13
2018-07-28T18:57:41.530Z,9.10
2018-07-28T19:00:10.800Z,8.57
2018-07-28T19:02:40.042Z,9.63
2018-07-28T19:05:09.386Z,9.90
2018-07-28T19:07:38.159Z,9.53
2018-07-28T19:10:07.079Z,9.47
2018-07-28T19:12:40.930Z,10.10
2018-07-28T19:15:10.086Z,11.27
2018-07-28T19:17:44.374Z,10.73
2018-07-28T19:20:13.598Z,9.87
2018-07-28T19:22:47.929Z,10.83
2018-07-28T19:25:17.230Z,10.00
2018-07-28T19:27:51.535Z,9.47
2018-07-28T19:30:20.998Z,10.43
2018-07-28T19:32:50.029Z,8.83
2018-07-28T19:35:18.940Z,8.90
2018-07-28T19:37:48.082Z,9.77
2018-07-28T19:40:17.227Z,8.93
2018-07-28T19:42:51.827Z,9.83
2018-07-28T19:45:21.403Z,9.47
2018-07-28T19:47:50.598Z,8.80
2018-07-28T19:50:19.840Z,8.80
2018-07-28T19:52:50.067Z,8.77
2018-07-28T19:55:19.275Z,8.90
2018-07-28T19:57:48.070Z,8.30
2018-07-28T20:00:17.109Z,9.00
2018-07-28T20:02:46.296Z,7.77
2018-07-28T20:05:15.614Z,7.70
2018-07-28T20:07:44.793Z,8.10
2018-07-28T20:10:13.961Z,11.40
2018-07-28T20:12:43.187Z,8.10
2018-07-28T20:15:12.113Z,7.60
2018-07-28T20:17:41.388Z,12.43
2018-07-28T20:20:12.590Z,17.47
2018-07-28T20:22:41.503Z,14.83
2018-07-28T20:25:10.648Z,15.10
2018-07-28T20:27:39.826Z,12.37
2018-07-28T20:30:09.145Z,13.30
2018-07-28T20:32:38.322Z,16.67
2018-07-28T20:35:07.219Z,16.97
2018-07-28T20:37:36.551Z,13.97
2018-07-28T20:40:05.607Z,13.23
2018-07-28T20:42:34.766Z,13.33
2018-07-28T20:45:04.103Z,23.27
2018-07-28T20:47:33.245Z,12.50
2018-07-28T20:50:01.940Z,13.20
2018-07-28T20:52:30.897Z,12.17
2018-07-28T20:55:00.036Z,14.07
2018-07-28T20:57:28.919Z,11.90
2018-07-28T20:59:57.826Z,16.70
2018-07-28T21:02:26.922Z,11.80
2018-07-28T21:04:55.993Z,11.30
2018-07-28T21:07:24.986Z,10.23
2018-07-28T21:09:54.224Z,11.13
2018-07-28T21:12:23.372Z,9.70
2018-07-28T21:14:52.543Z,11.60
2018-07-28T21:17:21.678Z,11.13
2018-07-28T21:19:50.874Z,11.93
2018-07-28T21:22:20.129Z,10.40
2018-07-28T21:24:48.990Z,9.83
2018-07-28T21:27:17.958Z,11.37
2018-07-28T21:29:46.929Z,10.63
2018-07-28T21:32:16.141Z,10.10
2018-07-28T21:34:45.031Z,10.77
2018-07-28T21:37:14.242Z,10.30
2018-07-28T21:39:42.973Z,10.70
2018-07-28T21:42:11.791Z,10.53
2018-07-28T21:44:40.816Z,10.37
2018-07-28T21:47:09.994Z,10.83
2018-07-28T21:49:39.127Z,11.23
2018-07-28T21:52:08.389Z,11.00
2018-07-28T21:54:37.615Z,9.63
2018-07-28T21:57:06.877Z,8.87
2018-07-28T21:59:36.244Z,8.93
2018-07-28T22:02:05.299Z,7.93
2018-07-28T22:04:36.522Z,8.50
2018-07-28T22:07:05.556Z,8.27
2018-07-28T22:09:34.731Z,8.70
2018-07-28T22:12:03.939Z,8.53
2018-07-28T22:14:32.923Z,10.27
2018-07-28T22:17:02.178Z,9.10
2018-07-28T22:19:31.534Z,10.80
2018-07-28T22:22:00.425Z,10.50
2018-07-28T22:24:30.925Z,9.83
2018-07-28T22:27:00.193Z,10.70
2018-07-28T22:29:29.116Z,11.23
2018-07-28T22:31:58.387Z,10.90
2018-07-28T22:34:27.465Z,11.57
2018-07-28T22:36:56.546Z,11.40
2018-07-28T22:39:25.570Z,12.50
2018-07-28T22:41:54.462Z,12.10
2018-07-28T22:44:23.811Z,12.37
2018-07-28T22:46:52.784Z,12.57
2018-07-28T22:49:21.902Z,11.43
2018-07-28T22:51:50.968Z,10.83
2018-07-28T22:54:20.274Z,11.10
2018-07-28T22:56:49.535Z,9.37
2018-07-28T22:59:18.847Z,10.07
2018-07-28T23:01:48.072Z,10.50
2018-07-28T23:04:16.962Z,10.13
2018-07-28T23:06:46.158Z,10.90
2018-07-28T23:09:15.285Z,11.67
2018-07-28T23:11:44.427Z,10.47
2018-07-28T23:14:13.731Z,10.73
2018-07-28T23:16:43.234Z,12.93
2018-07-28T23:19:12.119Z,12.70
2018-07-28T23:21:41.416Z,12.93
2018-07-28T23:24:10.442Z,13.73
2018-07-28T23:26:39.780Z,13.07
2018-07-28T23:29:09.018Z,13.20
2018-07-28T23:31:38.011Z,13.97
2018-07-28T23:34:07.075Z,13.60
2018-07-28T23:36:36.364Z,14.33
2018-07-28T23:39:07.720Z,15.07
2018-07-28T23:41:36.793Z,13.87
2018-07-28T23:44:05.558Z,14.20
2018-07-28T23:46:34.591Z,13.40
2018-07-28T23:49:03.534Z,13.33
2018-07-28T23:51:32.776Z,12.50
2018-07-28T23:54:01.727Z,13.50
2018-07-28T23:56:30.759Z,12.17
2018-07-28T23:58:59.656Z,12.60
